sensor_id;sensor_type;location;lat;lon;timestamp;pressure;altitude;pressure_sealevel;temperature;humidity
14253;BME280;7210;51.502;10.722;2023-02-22T00:00:44;99775.84;;;8.72;100.00
14253;BME280;7210;51.502;10.722;2023-02-22T00:03:16;99775.41;;;8.75;100.00
14253;BME280;7210;51.502;10.722;2023-02-22T00:05:45;99773.81;;;8.74;100.00
14253;BME280;7210;51.502;10.722;2023-02-22T00:08:14;99770.56;;;8.72;100.00
14253;BME280;7210;51.502;10.722;2023-02-22T00:10:43;99754.38;;;8.62;100.00
14253;BME280;7210;51.502;10.722;2023-02-22T00:13:13;99768.94;;;8.71;100.00
14253;BME280;7210;51.502;10.722;2023-02-22T00:15:40;99767.31;;;8.70;100.00
14253;BME280;7210;51.502;10.722;2023-02-22T00:18:08;99765.72;;;8.69;100.00
14253;BME280;7210;51.502;10.722;2023-02-22T00:20:36;99743.88;;;8.56;100.00
14253;BME280;7210;51.502;10.722;2023-02-22T00:23:06;99751.34;;;8.65;100.00
14253;BME280;7210;51.502;10.722;2023-02-22T00:25:35;99762.28;;;8.62;100.00
14253;BME280;7210;51.502;10.722;2023-02-22T00:28:04;99762.53;;;8.61;100.00
14253;BME280;7210;51.502;10.722;2023-02-22T00:30:32;99757.22;;;8.67;100.00
14253;BME280;7210;51.502;10.722;2023-02-22T00:32:59;99749.53;;;8.59;100.00
14253;BME280;7210;51.502;10.722;2023-02-22T00:35:29;99756.44;;;8.60;100.00
14253;BME280;7210;51.502;10.722;2023-02-22T00:37:59;99751.16;;;8.60;100.00
14253;BME280;7210;51.502;10.722;2023-02-22T00:40:30;99756.44;;;8.60;100.00
14253;BME280;7210;51.502;10.722;2023-02-22T00:42:58;99752.19;;;8.59;100.00
14253;BME280;7210;51.502;10.722;2023-02-22T00:45:29;99752.19;;;8.59;100.00
14253;BME280;7210;51.502;10.722;2023-02-22T00:47:58;99755.00;;;8.64;100.00
14253;BME280;7210;51.502;10.722;2023-02-22T00:50:27;99751.13;;;8.67;100.00
14253;BME280;7210;51.502;10.722;2023-02-22T00:53:00;99741.00;;;8.64;100.00
14253;BME280;7210;51.502;10.722;2023-02-22T00:55:31;99750.53;;;8.65;100.00
14253;BME280;7210;51.502;10.722;2023-02-22T00:57:59;99738.38;;;8.64;100.00
14253;BME280;7210;51.502;10.722;2023-02-22T01:00:32;99734.50;;;8.66;100.00
14253;BME280;7210;51.502;10.722;2023-02-22T01:03:01;99728.03;;;8.69;100.00
14253;BME280;7210;51.502;10.722;2023-02-22T01:05:30;99726.59;;;8.66;100.00
14253;BME280;7210;51.502;10.722;2023-02-22T01:08:00;99727.41;;;8.67;100.00
14253;BME280;7210;51.502;10.722;2023-02-22T01:10:32;99713.44;;;8.66;100.00
14253;BME280;7210;51.502;10.722;2023-02-22T01:13:00;99715.25;;;8.66;100.00
14253;BME280;7210;51.502;10.722;2023-02-22T01:15:32;99715.47;;;8.64;100.00
14253;BME280;7210;51.502;10.722;2023-02-22T01:17:59;99696.25;;;8.57;100.00
14253;BME280;7210;51.502;10.722;2023-02-22T01:20:27;99702.69;;;8.61;100.00
14253;BME280;7210;51.502;10.722;2023-02-22T01:22:58;99695.81;;;8.60;100.00
14253;BME280;7210;51.502;10.722;2023-02-22T01:25:30;99694.41;;;8.58;100.00
14253;BME280;7210;51.502;10.722;2023-02-22T01:28:00;99695.63;;;8.55;100.00
14253;BME280;7210;51.502;10.722;2023-02-22T01:30:32;99699.28;;;8.54;100.00
14253;BME280;7210;51.502;10.722;2023-02-22T01:33:01;99695.25;;;8.52;100.00
14253;BME280;7210;51.502;10.722;2023-02-22T01:35:33;99688.16;;;8.52;100.00
14253;BME280;7210;51.502;10.722;2023-02-22T01:38:01;99681.09;;;8.53;100.00
14253;BME280;7210;51.502;10.722;2023-02-22T01:40:31;99687.13;;;8.53;100.00
14253;BME280;7210;51.502;10.722;2023-02-22T01:43:02;99687.97;;;8.54;100.00
14253;BME280;7210;51.502;10.722;2023-02-22T01:45:54;99683.47;;;8.54;100.00
14253;BME280;7210;51.502;10.722;2023-02-22T01:48:43;99686.34;;;8.53;100.00
14253;BME280;7210;51.502;10.722;2023-02-22T01:51:15;99682.91;;;8.52;100.00
14253;BME280;7210;51.502;10.722;2023-02-22T01:53:49;99683.09;;;8.51;100.00
14253;BME280;7210;51.502;10.722;2023-02-22T01:56:20;99673.00;;;8.48;100.00
14253;BME280;7210;51.502;10.722;2023-02-22T01:58:51;99673.44;;;8.45;100.00
14253;BME280;7210;51.502;10.722;2023-02-22T02:01:24;99674.03;;;8.40;100.00
14253;BME280;7210;51.502;10.722;2023-02-22T02:03:56;99669.78;;;8.39;100.00
14253;BME280;7210;51.502;10.722;2023-02-22T02:06:27;99678.31;;;8.35;100.00
14253;BME280;7210;51.502;10.722;2023-02-22T02:09:09;99656.50;;;8.21;100.00
14253;BME280;7210;51.502;10.722;2023-02-22T02:11:39;99663.81;;;8.19;100.00
14253;BME280;7210;51.502;10.722;2023-02-22T02:14:09;99666.25;;;8.08;100.00
14253;BME280;7210;51.502;10.722;2023-02-22T02:16:41;99659.22;;;7.95;100.00
14253;BME280;7210;51.502;10.722;2023-02-22T02:19:19;99646.31;;;7.81;100.00
14253;BME280;7210;51.502;10.722;2023-02-22T02:22:32;99648.53;;;7.77;100.00
14253;BME280;7210;51.502;10.722;2023-02-22T02:29:33;99655.41;;;7.78;100.00
14253;BME280;7210;51.502;10.722;2023-02-22T02:32:26;99657.44;;;7.76;100.00
14253;BME280;7210;51.502;10.722;2023-02-22T02:35:06;99659.50;;;7.74;100.00
14253;BME280;7210;51.502;10.722;2023-02-22T02:37:48;99660.91;;;7.70;100.00
14253;BME280;7210;51.502;10.722;2023-02-22T02:40:24;99650.59;;;7.69;100.00
14253;BME280;7210;51.502;10.722;2023-02-22T02:43:00;99636.25;;;7.58;100.00
14253;BME280;7210;51.502;10.722;2023-02-22T02:45:38;99658.69;;;7.67;100.00
14253;BME280;7210;51.502;10.722;2023-02-22T02:48:13;99655.03;;;7.68;100.00
14253;BME280;7210;51.502;10.722;2023-02-22T02:50:46;99651.81;;;7.66;100.00
14253;BME280;7210;51.502;10.722;2023-02-22T02:53:20;99657.06;;;7.73;100.00
14253;BME280;7210;51.502;10.722;2023-02-22T02:55:49;99658.06;;;7.72;100.00
14253;BME280;7210;51.502;10.722;2023-02-22T02:58:19;99658.06;;;7.72;100.00
14253;BME280;7210;51.502;10.722;2023-02-22T03:00:51;99655.25;;;7.73;100.00
14253;BME280;7210;51.502;10.722;2023-02-22T03:06:41;99650.16;;;7.78;100.00
14253;BME280;7210;51.502;10.722;2023-02-22T03:09:28;99654.00;;;7.82;100.00
14253;BME280;7210;51.502;10.722;2023-02-22T03:12:16;99648.16;;;7.80;100.00
14253;BME280;7210;51.502;10.722;2023-02-22T03:17:49;99646.94;;;7.76;100.00
14253;BME280;7210;51.502;10.722;2023-02-22T03:20:27;99644.72;;;7.73;100.00
14253;BME280;7210;51.502;10.722;2023-02-22T03:23:05;99638.25;;;7.76;100.00
14253;BME280;7210;51.502;10.722;2023-02-22T03:25:45;99639.63;;;7.78;100.00
14253;BME280;7210;51.502;10.722;2023-02-22T03:28:18;99637.63;;;7.80;100.00
14253;BME280;7210;51.502;10.722;2023-02-22T03:30:53;99633.53;;;7.84;100.00
14253;BME280;7210;51.502;10.722;2023-02-22T03:33:29;99631.53;;;7.86;100.00
14253;BME280;7210;51.502;10.722;2023-02-22T03:36:09;99629.50;;;7.88;100.00
14253;BME280;7210;51.502;10.722;2023-02-22T03:38:41;99627.44;;;7.90;100.00
14253;BME280;7210;51.502;10.722;2023-02-22T03:41:18;99625.59;;;7.97;100.00
14253;BME280;7210;51.502;10.722;2023-02-22T03:43:53;99623.34;;;8.01;100.00
14253;BME280;7210;51.502;10.722;2023-02-22T03:46:24;99615.03;;;8.04;100.00
14253;BME280;7210;51.502;10.722;2023-02-22T03:49:01;99617.47;;;8.05;100.00
14253;BME280;7210;51.502;10.722;2023-02-22T03:51:33;99607.94;;;8.04;100.00
14253;BME280;7210;51.502;10.722;2023-02-22T03:54:03;99613.22;;;8.04;100.00
14253;BME280;7210;51.502;10.722;2023-02-22T03:56:47;99604.28;;;8.05;100.00
14253;BME280;7210;51.502;10.722;2023-02-22T03:59:19;99612.78;;;8.07;100.00
14253;BME280;7210;51.502;10.722;2023-02-22T04:01:51;99599.03;;;8.05;100.00
14253;BME280;7210;51.502;10.722;2023-02-22T04:04:18;99593.19;;;8.03;100.00
14253;BME280;7210;51.502;10.722;2023-02-22T04:06:49;99592.56;;;8.01;100.00
14253;BME280;7210;51.502;10.722;2023-02-22T04:09:19;99592.56;;;8.01;100.00
14253;BME280;7210;51.502;10.722;2023-02-22T04:11:47;99585.88;;;8.05;100.00
14253;BME280;7210;51.502;10.722;2023-02-22T04:14:15;99588.06;;;8.08;100.00
14253;BME280;7210;51.502;10.722;2023-02-22T04:16:47;99587.69;;;8.05;100.00
14253;BME280;7210;51.502;10.722;2023-02-22T04:19:14;99583.66;;;8.02;100.00
14253;BME280;7210;51.502;10.722;2023-02-22T04:21:41;99580.00;;;8.03;100.00
14253;BME280;7210;51.502;10.722;2023-02-22T04:24:15;99578.81;;;7.99;100.00
14253;BME280;7210;51.502;10.722;2023-02-22T04:26:44;99577.63;;;7.95;100.00
14253;BME280;7210;51.502;10.722;2023-02-22T04:29:11;99577.00;;;7.93;100.00
14253;BME280;7210;51.502;10.722;2023-02-22T04:31:40;99570.94;;;7.93;100.00
14253;BME280;7210;51.502;10.722;2023-02-22T04:34:08;99576.00;;;7.94;100.00
14253;BME280;7210;51.502;10.722;2023-02-22T04:36:39;99575.59;;;7.97;100.00
14253;BME280;7210;51.502;10.722;2023-02-22T04:39:07;99581.19;;;8.07;100.00
14253;BME280;7210;51.502;10.722;2023-02-22T04:41:34;99573.53;;;7.99;100.00
14253;BME280;7210;51.502;10.722;2023-02-22T04:44:04;99572.94;;;7.97;100.00
14253;BME280;7210;51.502;10.722;2023-02-22T04:46:31;99562.22;;;7.99;100.00
14253;BME280;7210;51.502;10.722;2023-02-22T04:49:00;99565.84;;;7.98;100.00
14253;BME280;7210;51.502;10.722;2023-02-22T04:51:30;99561.41;;;7.98;100.00
14253;BME280;7210;51.502;10.722;2023-02-22T04:54:10;99555.31;;;7.98;100.00
14253;BME280;7210;51.502;10.722;2023-02-22T04:56:41;99546.25;;;7.94;100.00
14253;BME280;7210;51.502;10.722;2023-02-22T04:59:10;99549.31;;;7.91;100.00
14253;BME280;7210;51.502;10.722;2023-02-22T05:01:41;99552.56;;;7.86;100.00
14253;BME280;7210;51.502;10.722;2023-02-22T05:04:08;99545.50;;;7.80;100.00
14253;BME280;7210;51.502;10.722;2023-02-22T05:06:35;99507.78;;;7.55;100.00
14253;BME280;7210;51.502;10.722;2023-02-22T05:09:03;99548.16;;;7.74;100.00
14253;BME280;7210;51.502;10.722;2023-02-22T05:11:30;99542.50;;;7.70;100.00
14253;BME280;7210;51.502;10.722;2023-02-22T05:13:57;99545.38;;;7.69;100.00
14253;BME280;7210;51.502;10.722;2023-02-22T05:16:25;99541.91;;;7.68;100.00
14253;BME280;7210;51.502;10.722;2023-02-22T05:18:53;99545.38;;;7.69;100.00
14253;BME280;7210;51.502;10.722;2023-02-22T05:21:20;99543.53;;;7.69;100.00
14253;BME280;7210;51.502;10.722;2023-02-22T05:23:47;99542.50;;;7.70;100.00
14253;BME280;7210;51.502;10.722;2023-02-22T05:26:14;99547.75;;;7.70;100.00
14253;BME280;7210;51.502;10.722;2023-02-22T05:28:42;99544.53;;;7.68;100.00
14253;BME280;7210;51.502;10.722;2023-02-22T05:31:09;99542.13;;;7.67;100.00
14253;BME280;7210;51.502;10.722;2023-02-22T05:33:37;99546.78;;;7.65;100.00
14253;BME280;7210;51.502;10.722;2023-02-22T05:36:06;99546.19;;;7.63;100.00
14253;BME280;7210;51.502;10.722;2023-02-22T05:38:35;99537.31;;;7.57;100.00
14253;BME280;7210;51.502;10.722;2023-02-22T05:41:08;99542.97;;;7.61;100.00
14253;BME280;7210;51.502;10.722;2023-02-22T05:43:35;99535.28;;;7.59;100.00
14253;BME280;7210;51.502;10.722;2023-02-22T05:46:05;99530.44;;;7.56;100.00
14253;BME280;7210;51.502;10.722;2023-02-22T05:48:33;99536.72;;;7.55;100.00
14253;BME280;7210;51.502;10.722;2023-02-22T05:51:02;99528.63;;;7.50;100.00
14253;BME280;7210;51.502;10.722;2023-02-22T05:53:35;99531.66;;;7.54;100.00
14253;BME280;7210;51.502;10.722;2023-02-22T05:56:03;99530.06;;;7.53;100.00
14253;BME280;7210;51.502;10.722;2023-02-22T05:58:30;99529.22;;;7.52;100.00
14253;BME280;7210;51.502;10.722;2023-02-22T06:00:57;99531.66;;;7.54;100.00
14253;BME280;7210;51.502;10.722;2023-02-22T06:03:25;99538.97;;;7.52;100.00
14253;BME280;7210;51.502;10.722;2023-02-22T06:05:52;99536.53;;;7.50;100.00
14253;BME280;7210;51.502;10.722;2023-02-22T06:08:20;99526.78;;;7.51;100.00
14253;BME280;7210;51.502;10.722;2023-02-22T06:10:48;99527.03;;;7.49;100.00
14253;BME280;7210;51.502;10.722;2023-02-22T06:13:15;99532.28;;;7.49;100.00
14253;BME280;7210;51.502;10.722;2023-02-22T06:15:42;99533.91;;;7.50;100.00
14253;BME280;7210;51.502;10.722;2023-02-22T06:18:10;99528.03;;;7.48;100.00
14253;BME280;7210;51.502;10.722;2023-02-22T06:20:37;99527.66;;;7.45;100.00
14253;BME280;7210;51.502;10.722;2023-02-22T06:23:05;99528.91;;;7.36;100.00
14253;BME280;7210;51.502;10.722;2023-02-22T06:25:33;99526.69;;;7.27;100.00
14253;BME280;7210;51.502;10.722;2023-02-22T06:28:01;99519.66;;;7.14;100.00
14253;BME280;7210;51.502;10.722;2023-02-22T06:30:29;99523.72;;;7.04;100.00
14253;BME280;7210;51.502;10.722;2023-02-22T06:32:57;99507.59;;;6.94;100.00
14253;BME280;7210;51.502;10.722;2023-02-22T06:35:24;99515.66;;;6.86;100.00
14253;BME280;7210;51.502;10.722;2023-02-22T06:37:51;99514.06;;;6.78;100.00
14253;BME280;7210;51.502;10.722;2023-02-22T06:40:19;99523.97;;;6.76;100.00
14253;BME280;7210;51.502;10.722;2023-02-22T06:42:48;99525.00;;;6.75;100.00
14253;BME280;7210;51.502;10.722;2023-02-22T06:45:16;99525.00;;;6.75;100.00
14253;BME280;7210;51.502;10.722;2023-02-22T06:47:45;99529.00;;;6.78;100.00
14253;BME280;7210;51.502;10.722;2023-02-22T06:50:21;99528.41;;;6.76;100.00
14253;BME280;7210;51.502;10.722;2023-02-22T06:52:48;99538.31;;;6.87;100.00
14253;BME280;7210;51.502;10.722;2023-02-22T06:55:18;99541.53;;;6.89;100.00
14253;BME280;7210;51.502;10.722;2023-02-22T06:57:48;99540.53;;;6.90;100.00
14253;BME280;7210;51.502;10.722;2023-02-22T07:00:18;99548.81;;;6.87;100.00
14253;BME280;7210;51.502;10.722;2023-02-22T07:02:47;99547.19;;;6.86;100.00
14253;BME280;7210;51.502;10.722;2023-02-22T07:05:16;99543.97;;;6.84;100.00
14253;BME280;7210;51.502;10.722;2023-02-22T07:07:44;99542.56;;;6.88;100.00
14253;BME280;7210;51.502;10.722;2023-02-22T07:10:20;99548.78;;;7.00;100.00
14253;BME280;7210;51.502;10.722;2023-02-22T07:12:49;99549.22;;;6.97;100.00
14253;BME280;7210;51.502;10.722;2023-02-22T07:15:26;99550.41;;;7.01;100.00
14253;BME280;7210;51.502;10.722;2023-02-22T07:17:54;99554.47;;;7.10;100.00
14253;BME280;7210;51.502;10.722;2023-02-22T07:20:23;99554.84;;;7.20;100.00
14253;BME280;7210;51.502;10.722;2023-02-22T07:22:52;99558.84;;;7.28;100.00
14253;BME280;7210;51.502;10.722;2023-02-22T07:25:21;99556.81;;;7.37;100.00
14253;BME280;7210;51.502;10.722;2023-02-22T07:27:51;99558.41;;;7.44;100.00
14253;BME280;7210;51.502;10.722;2023-02-22T07:30:22;99560.41;;;7.55;100.00
14253;BME280;7210;51.502;10.722;2023-02-22T07:32:51;99555.88;;;7.62;100.00
14253;BME280;7210;51.502;10.722;2023-02-22T07:35:23;99544.97;;;7.59;100.00
14253;BME280;7210;51.502;10.722;2023-02-22T07:37:51;99557.06;;;7.73;100.00
14253;BME280;7210;51.502;10.722;2023-02-22T07:40:19;99564.31;;;7.77;100.00
14253;BME280;7210;51.502;10.722;2023-02-22T07:42:55;99553.81;;;7.77;100.00
14253;BME280;7210;51.502;10.722;2023-02-22T07:45:26;99553.41;;;7.80;100.00
14253;BME280;7210;51.502;10.722;2023-02-22T07:47:54;99550.16;;;7.78;100.00
14253;BME280;7210;51.502;10.722;2023-02-22T07:50:23;99537.00;;;7.78;100.00
14253;BME280;7210;51.502;10.722;2023-02-22T07:52:53;99540.25;;;7.80;100.00
14253;BME280;7210;51.502;10.722;2023-02-22T07:55:23;99537.19;;;7.83;100.00
14253;BME280;7210;51.502;10.722;2023-02-22T07:57:55;99538.78;;;7.84;100.00
14253;BME280;7210;51.502;10.722;2023-02-22T08:00:25;99523.84;;;7.78;100.00
14253;BME280;7210;51.502;10.722;2023-02-22T08:02:54;99523.81;;;7.85;100.00
14253;BME280;7210;51.502;10.722;2023-02-22T08:05:24;99531.03;;;7.96;100.00
14253;BME280;7210;51.502;10.722;2023-02-22T08:07:52;99520.91;;;7.99;100.00
14253;BME280;7210;51.502;10.722;2023-02-22T08:10:24;99516.22;;;8.01;100.00
14253;BME280;7210;51.502;10.722;2023-02-22T08:12:53;99514.78;;;8.05;100.00
14253;BME280;7210;51.502;10.722;2023-02-22T08:15:27;99511.91;;;8.13;100.00
14253;BME280;7210;51.502;10.722;2023-02-22T08:17:55;99517.97;;;8.20;100.00
14253;BME280;7210;51.502;10.722;2023-02-22T08:20:23;99510.25;;;8.25;100.00
14253;BME280;7210;51.502;10.722;2023-02-22T08:22:50;99511.41;;;8.29;100.00
14253;BME280;7210;51.502;10.722;2023-02-22T08:25:19;99510.94;;;8.39;100.00
14253;BME280;7210;51.502;10.722;2023-02-22T08:27:48;99502.97;;;8.45;100.00
14253;BME280;7210;51.502;10.722;2023-02-22T08:30:20;99492.59;;;8.50;100.00
14253;BME280;7210;51.502;10.722;2023-02-22T08:32:48;99488.88;;;8.58;100.00
14253;BME280;7210;51.502;10.722;2023-02-22T08:35:18;99487.81;;;8.65;100.00
14253;BME280;7210;51.502;10.722;2023-02-22T08:37:47;99471.13;;;8.71;100.00
14253;BME280;7210;51.502;10.722;2023-02-22T08:40:18;99477.38;;;8.77;100.00
14253;BME280;7210;51.502;10.722;2023-02-22T08:42:44;99459.13;;;8.75;100.00
14253;BME280;7210;51.502;10.722;2023-02-22T08:45:12;99469.91;;;8.92;100.00
14253;BME280;7210;51.502;10.722;2023-02-22T08:47:41;99459.50;;;8.97;100.00
14253;BME280;7210;51.502;10.722;2023-02-22T08:50:15;99455.78;;;9.04;100.00
14253;BME280;7210;51.502;10.722;2023-02-22T08:52:43;99452.25;;;9.10;100.00
14253;BME280;7210;51.502;10.722;2023-02-22T08:55:10;99439.78;;;9.17;100.00
14253;BME280;7210;51.502;10.722;2023-02-22T08:57:37;99438.47;;;9.26;100.00
14253;BME280;7210;51.502;10.722;2023-02-22T09:00:06;99440.94;;;9.39;100.00
14253;BME280;7210;51.502;10.722;2023-02-22T09:02:33;99434.41;;;9.42;100.00
14253;BME280;7210;51.502;10.722;2023-02-22T09:05:01;99423.75;;;9.48;100.00
14253;BME280;7210;51.502;10.722;2023-02-22T09:07:30;99426.09;;;9.56;100.00
14253;BME280;7210;51.502;10.722;2023-02-22T09:09:58;99426.38;;;9.66;100.00
14253;BME280;7210;51.502;10.722;2023-02-22T09:12:25;99410.06;;;9.69;100.00
14253;BME280;7210;51.502;10.722;2023-02-22T09:14:52;99408.81;;;9.72;100.00
14253;BME280;7210;51.502;10.722;2023-02-22T09:17:19;99407.00;;;9.84;100.00
14253;BME280;7210;51.502;10.722;2023-02-22T09:19:46;99409.34;;;9.92;100.00
14253;BME280;7210;51.502;10.722;2023-02-22T09:22:15;99395.00;;;9.99;100.00
14253;BME280;7210;51.502;10.722;2023-02-22T09:24:42;99399.41;;;10.05;100.00
14253;BME280;7210;51.502;10.722;2023-02-22T09:27:09;99397.69;;;10.11;100.00
14253;BME280;7210;51.502;10.722;2023-02-22T09:29:37;99396.41;;;10.13;100.00
14253;BME280;7210;51.502;10.722;2023-02-22T09:32:05;99384.59;;;10.16;100.00
14253;BME280;7210;51.502;10.722;2023-02-22T09:34:32;99386.56;;;10.20;100.00
14253;BME280;7210;51.502;10.722;2023-02-22T09:37:00;99385.97;;;10.30;100.00
14253;BME280;7210;51.502;10.722;2023-02-22T09:39:31;99383.31;;;10.41;100.00
14253;BME280;7210;51.502;10.722;2023-02-22T09:42:12;99381.97;;;10.50;100.00
14253;BME280;7210;51.502;10.722;2023-02-22T09:44:47;99390.19;;;10.65;100.00
14253;BME280;7210;51.502;10.722;2023-02-22T09:47:23;99371.13;;;10.63;100.00
14253;BME280;7210;51.502;10.722;2023-02-22T09:50:02;99377.28;;;10.80;100.00
14253;BME280;7210;51.502;10.722;2023-02-22T09:52:35;99373.50;;;10.88;100.00
14253;BME280;7210;51.502;10.722;2023-02-22T09:55:14;99368.63;;;10.96;100.00
14253;BME280;7210;51.502;10.722;2023-02-22T09:57:51;99367.81;;;11.07;100.00
14253;BME280;7210;51.502;10.722;2023-02-22T10:00:23;99366.88;;;11.13;100.00
14253;BME280;7210;51.502;10.722;2023-02-22T10:03:11;99368.19;;;11.27;100.00
14253;BME280;7210;51.502;10.722;2023-02-22T10:05:50;99358.59;;;11.37;100.00
14253;BME280;7210;51.502;10.722;2023-02-22T10:08:19;99356.47;;;11.51;100.00
14253;BME280;7210;51.502;10.722;2023-02-22T10:10:58;99356.22;;;11.52;100.00
14253;BME280;7210;51.502;10.722;2023-02-22T10:13:38;99347.56;;;11.57;100.00
14253;BME280;7210;51.502;10.722;2023-02-22T10:16:19;99336.53;;;11.60;100.00
14253;BME280;7210;51.502;10.722;2023-02-22T10:19:17;99344.06;;;11.68;100.00
14253;BME280;7210;51.502;10.722;2023-02-22T10:22:18;99344.25;;;11.78;100.00
14253;BME280;7210;51.502;10.722;2023-02-22T10:24:58;99338.00;;;11.84;100.00
14253;BME280;7210;51.502;10.722;2023-02-22T10:27:32;99347.13;;;11.93;100.00
14253;BME280;7210;51.502;10.722;2023-02-22T10:30:27;99343.53;;;11.99;99.78
14253;BME280;7210;51.502;10.722;2023-02-22T10:33:05;99346.81;;;12.06;99.43
14253;BME280;7210;51.502;10.722;2023-02-22T10:35:37;99340.06;;;12.15;98.42
14253;BME280;7210;51.502;10.722;2023-02-22T10:38:17;99345.00;;;12.28;98.13
14253;BME280;7210;51.502;10.722;2023-02-22T10:40:49;99347.88;;;12.43;97.58
14253;BME280;7210;51.502;10.722;2023-02-22T10:43:21;99344.00;;;12.50;96.79
14253;BME280;7210;51.502;10.722;2023-02-22T10:45:54;99342.84;;;12.63;96.19
14253;BME280;7210;51.502;10.722;2023-02-22T10:48:25;99342.41;;;12.71;96.00
14253;BME280;7210;51.502;10.722;2023-02-22T10:51:00;99334.47;;;12.71;95.41
14253;BME280;7210;51.502;10.722;2023-02-22T10:53:29;99344.88;;;12.77;95.00
14253;BME280;7210;51.502;10.722;2023-02-22T10:56:12;99337.19;;;12.76;94.72
14253;BME280;7210;51.502;10.722;2023-02-22T10:58:48;99330.75;;;12.72;94.49
14253;BME280;7210;51.502;10.722;2023-02-22T11:01:26;99336.56;;;12.69;94.32
14253;BME280;7210;51.502;10.722;2023-02-22T11:04:14;99336.59;;;12.74;93.82
14253;BME280;7210;51.502;10.722;2023-02-22T11:06:44;99328.97;;;12.77;93.01
14253;BME280;7210;51.502;10.722;2023-02-22T11:09:16;99333.53;;;12.82;93.03
14253;BME280;7210;51.502;10.722;2023-02-22T11:11:46;99339.22;;;12.90;92.86
14253;BME280;7210;51.502;10.722;2023-02-22T11:14:27;99349.13;;;12.95;92.89
14253;BME280;7210;51.502;10.722;2023-02-22T11:16:57;99353.00;;;13.09;92.14
14253;BME280;7210;51.502;10.722;2023-02-22T11:19:26;99345.03;;;13.09;92.01
14253;BME280;7210;51.502;10.722;2023-02-22T11:22:10;99358.09;;;13.15;91.87
14253;BME280;7210;51.502;10.722;2023-02-22T11:24:46;99362.72;;;13.25;91.48
14253;BME280;7210;51.502;10.722;2023-02-22T11:27:34;99347.09;;;13.28;91.14
14253;BME280;7210;51.502;10.722;2023-02-22T11:30:21;99338.94;;;13.35;90.18
14253;BME280;7210;51.502;10.722;2023-02-22T11:32:56;99359.41;;;13.39;90.41
14253;BME280;7210;51.502;10.722;2023-02-22T11:35:37;99340.91;;;13.44;89.80
14253;BME280;7210;51.502;10.722;2023-02-22T11:38:15;99349.22;;;13.53;89.51
14253;BME280;7210;51.502;10.722;2023-02-22T11:40:44;99366.25;;;13.57;89.77
14253;BME280;7210;51.502;10.722;2023-02-22T11:43:16;99364.72;;;13.66;89.40
14253;BME280;7210;51.502;10.722;2023-02-22T11:46:01;99357.91;;;13.75;88.80
14253;BME280;7210;51.502;10.722;2023-02-22T11:48:32;99337.25;;;13.82;87.92
14253;BME280;7210;51.502;10.722;2023-02-22T11:51:16;99333.63;;;13.93;87.61
14253;BME280;7210;51.502;10.722;2023-02-22T11:57:37;99339.06;;;14.13;86.63
14253;BME280;7210;51.502;10.722;2023-02-22T12:00:22;99325.75;;;14.08;86.50
14253;BME280;7210;51.502;10.722;2023-02-22T12:03:36;99328.97;;;14.10;86.28
14253;BME280;7210;51.502;10.722;2023-02-22T12:06:30;99348.38;;;14.10;86.70
14253;BME280;7210;51.502;10.722;2023-02-22T12:09:10;99367.56;;;14.17;86.27
14253;BME280;7210;51.502;10.722;2023-02-22T12:11:58;99330.16;;;14.24;85.02
14253;BME280;7210;51.502;10.722;2023-02-22T12:14:38;99321.91;;;14.25;84.94
14253;BME280;7210;51.502;10.722;2023-02-22T12:17:24;99346.09;;;14.24;85.34
14253;BME280;7210;51.502;10.722;2023-02-22T12:20:04;99334.69;;;14.28;84.59
14253;BME280;7210;51.502;10.722;2023-02-22T12:22:46;99351.47;;;14.34;84.70
14253;BME280;7210;51.502;10.722;2023-02-22T12:25:21;99355.78;;;14.40;84.27
14253;BME280;7210;51.502;10.722;2023-02-22T12:27:54;99340.03;;;14.28;84.63
14253;BME280;7210;51.502;10.722;2023-02-22T12:30:33;99344.63;;;14.43;83.79
14253;BME280;7210;51.502;10.722;2023-02-22T12:33:12;99350.50;;;14.50;83.63
14253;BME280;7210;51.502;10.722;2023-02-22T12:35:49;99377.94;;;14.55;84.08
14253;BME280;7210;51.502;10.722;2023-02-22T12:38:23;99361.19;;;14.55;83.48
14253;BME280;7210;51.502;10.722;2023-02-22T12:40:59;99361.72;;;14.57;83.40
14253;BME280;7210;51.502;10.722;2023-02-22T12:43:35;99343.88;;;14.52;82.76
14253;BME280;7210;51.502;10.722;2023-02-22T12:46:11;99368.13;;;14.56;83.06
14253;BME280;7210;51.502;10.722;2023-02-22T12:48:46;99364.88;;;14.49;83.37
14253;BME280;7210;51.502;10.722;2023-02-22T12:51:28;99359.09;;;14.62;82.45
14253;BME280;7210;51.502;10.722;2023-02-22T12:54:09;99360.41;;;14.59;82.43
14253;BME280;7210;51.502;10.722;2023-02-22T12:56:43;99383.53;;;14.54;83.07
14253;BME280;7210;51.502;10.722;2023-02-22T12:59:28;99406.13;;;14.51;83.29
14253;BME280;7210;51.502;10.722;2023-02-22T13:02:02;99415.47;;;14.54;83.30
14253;BME280;7210;51.502;10.722;2023-02-22T13:04:41;99417.09;;;14.60;83.21
14253;BME280;7210;51.502;10.722;2023-02-22T13:07:24;99389.44;;;14.61;82.58
14253;BME280;7210;51.502;10.722;2023-02-22T13:13:30;99370.88;;;14.76;81.50
14253;BME280;7210;51.502;10.722;2023-02-22T13:16:09;99381.50;;;14.76;81.70
14253;BME280;7210;51.502;10.722;2023-02-22T13:18:48;99395.66;;;14.81;81.78
14253;BME280;7210;51.502;10.722;2023-02-22T13:21:27;99393.31;;;14.90;81.65
14253;BME280;7210;51.502;10.722;2023-02-22T13:24:01;99414.59;;;14.90;82.15
14253;BME280;7210;51.502;10.722;2023-02-22T13:26:38;99422.06;;;14.88;82.13
14253;BME280;7210;51.502;10.722;2023-02-22T13:29:19;99407.19;;;14.97;81.47
14253;BME280;7210;51.502;10.722;2023-02-22T13:32:12;99399.19;;;14.97;80.86
14253;BME280;7210;51.502;10.722;2023-02-22T13:35:01;99396.06;;;15.10;80.59
14253;BME280;7210;51.502;10.722;2023-02-22T13:41:16;99379.56;;;15.08;80.33
14253;BME280;7210;51.502;10.722;2023-02-22T13:44:20;99422.66;;;15.05;81.18
14253;BME280;7210;51.502;10.722;2023-02-22T13:47:17;99426.97;;;15.11;81.11
14253;BME280;7210;51.502;10.722;2023-02-22T13:50:32;99420.59;;;15.17;80.76
14253;BME280;7210;51.502;10.722;2023-02-22T13:53:06;99417.38;;;15.10;80.89